AirNav   Everest Fuels
 
 377 users online  

2CL1 Brownsville Airpark
Brownsville, California, USA

GOING TO BROWNSVILLE?


FAA INFORMATION EFFECTIVE 03 NOVEMBER 2022

Location

FAA Identifier: 2CL1
Lat/Long: 39-27-18.8000N 121-17-29.9000W
39-27.313333N 121-17.498333W
39.4552222,-121.2916389
(estimated)
Elevation: 2120 ft. / 646 m (estimated)
Variation: 16E (1985)
From city: 2 miles SW of BROWNSVILLE, CA
Time zone: UTC -8 (UTC -7 during Daylight Saving Time)
Zip code: 95919

Airport Operations

Airport use: Private use. Permission required prior to landing
Activation date: 08/1965
Control tower: no
ARTCC: OAKLAND CENTER
FSS: RANCHO MURIETA FLIGHT SERVICE STATION
Attendance: UNATNDD
Pattern altitude: 2920 ft. MSL
Wind indicator: yes
Segmented circle: yes

Airport Communications

CTAF: 122.9
WX ASOS at OVE (15 nm W): 121.425 (530-533-5792)
WX AWOS-3 at GOO (19 nm SE): 121.325 (530-273-0029)

Nearby radio navigation aids

VOR radial/distance  VOR name  Freq  Var
MYVr015/25.1MARYSVILLE VOR/DME110.8016E

Airport Services

Parking: tiedowns
Bottled oxygen: NONE
Bulk oxygen: NONE

Runway Information

Runway 6/24

Dimensions: 2326 x 20 ft. / 709 x 6 m
Surface: asphalt/concrete, in good condition
Operational restrictions: RY 06/24 PAVEMENT NARROW, GRVL EDGES ARE SOFT WHEN WET.
RUNWAY 6  RUNWAY 24
Latitude: 39-27.275892N39-27.349152N
Longitude: 121-17.740448W121-17.255383W
Elevation: 2091.5 ft.2108.4 ft.
Traffic pattern: rightleft
Markings: basic, in good conditionbasic, in good condition
Runway end identifier lights: nono
Obstructions: none
RWY 06 +15' TREES 125' RIGHT, 90' FM THRESHOLD
40 ft. tree, 420 ft. from runway, 5:1 slope to clear
RWY 24 +15 POLE & WIRES 78' LEFT, 96' FM THRESHOLD

Airport Ownership and Management from official FAA records

Ownership: Privately-owned
Owner: BROWNSVILLE AIRPARK LLC
PO BOX 162
BROWNSVILLE, CA 95919-2937
Phone 530-675-0496
ALTN PHONE NRS: 330-442-7402; 916-591-2602.
Manager: BROWNSVILLE AIRPARK LLC
PO BOX 162
BROWNSVILLE, CA 95919
Phone 330-442-7402

Airport Operational Statistics

Aircraft based on the field: 10
Single engine airplanes: 9
Ultralights: 1
    
Aircraft operations: avg 27/week *
71% local general aviation
29% transient general aviation
* for 12-month period ending 30 April 2011

Additional Remarks

TREES SURROUND ARPT ON NORTH, SOUTH, AND EAST. STEEP DROP-OFF TO WEST.
TERRAIN RISES 850' ABV RY ELEV 4000' EAST OF RY END.
LDGS USE FULL RWY LEN, NO MID-FLD TURNAROUND; GND SOFT WHEN WET. BACK TAXI ON RWY TO RUNUP OR TIE-DOWN AREAS LCTD NE OF MID-FLD INT.
FOR CD CTC NORCAL APCH AT 916-361-6874.
NORDO (NO RADIO) USE IS PROHIBITED. ALL PILOTS MUST COMMUNICATE USING CTAF 122.900 WHILE USING ARPT OR IN THE TFC PAT.

Instrument Procedures

There are no published instrument procedures at 2CL1.

Some nearby airports with instrument procedures:

KOVE - Oroville Municipal Airport (15 nm W)
KGOO - Nevada County Airport (19 nm SE)
KBAB - Beale Air Force Base (20 nm S)
KMYV - Yuba County Airport (25 nm SW)
KAUN - Auburn Municipal Airport (32 nm S)
 
Loc | Ops | Rwys | IFR | FBO | Links
Com | Nav | Svcs | Stats | Notes
Area around 2CL1 (Brownsville Airpark)
 
Road maps at: MapQuest Bing Google
 
Aerial photo
WARNING: Photo may not be current or correct
Aerial photo of 2CL1 (Brownsville Airpark)
Photo taken 10-May-2011
looking north.

Do you have a better or more recent aerial photo of Brownsville Airpark that you would like to share? If so, please send us your photo.

 
Sectional chart

 
Airport distance calculator
Flying to Brownsville Airpark? Find the distance to fly.

From to 2CL1

Sunrise and sunset
Times for 28-Nov-2022
 Local
(UTC-8)
 Zulu
(UTC)
Morning civil twilight06:3514:35
Sunrise07:0415:04
Sunset16:4200:42
Evening civil twilight17:1201:12

Current date and time
Zulu (UTC)  28-Nov-2022 09:40:56
Local (UTC-8)  28-Nov-2022 01:40:56
 
METAR
KOVE 
15nm W 
280853Z AUTO 08003KT 10SM CLR 08/03 A2999 RMK AO2 SLP157 T00780028 58007
KGOO 
19nm SE 
280915Z AUTO 00000KT 10SM BKN060 08/M02 A2996 RMK A01
KBAB 
20nm S 
280555Z AUTO 10005KT 10SM CLR 08/03 A2998 RMK AO2 SLP155 T00840028 10162 20065 $
KBLU 
29nm E 
280852Z AUTO 19004KT 10SM OVC048 03/M04 A3000 RMK AO2 SLP132 T00331044 58013
TAF
NOTAMs
Click for the latest NOTAMs
NOTAMs are issued by the DoD/FAA and will open in a separate window not controlled by AirNav.

 

 
 

Would you like to see your business listed on this page?

 If your business provides an interesting product or service to pilots, flight crews, aircraft, or users of the Brownsville Airpark, you should consider listing it here.  To start the listing process, click on the button below
 
Add a business
 

Other Pages about Brownsville Airpark

Update a link
 
Copyright © AirNav, LLC. All rights reserved. Privacy Policy  Contact